sensor_id;sensor_type;location;lat;lon;timestamp;P1;durP1;ratioP1;P2;durP2;ratioP2
42104;SDS011;61464;51.472;5.712;2022-07-22T00:01:05;15.63;;;7.78;;
42104;SDS011;61464;51.472;5.712;2022-07-22T00:03:31;16.70;;;7.75;;
42104;SDS011;61464;51.472;5.712;2022-07-22T00:05:57;19.10;;;7.95;;
42104;SDS011;61464;51.472;5.712;2022-07-22T00:08:23;14.95;;;7.55;;
42104;SDS011;61464;51.472;5.712;2022-07-22T00:10:49;13.55;;;7.60;;
42104;SDS011;61464;51.472;5.712;2022-07-22T00:13:15;12.48;;;7.05;;
42104;SDS011;61464;51.472;5.712;2022-07-22T00:15:42;14.00;;;7.35;;
42104;SDS011;61464;51.472;5.712;2022-07-22T00:18:10;13.32;;;6.88;;
42104;SDS011;61464;51.472;5.712;2022-07-22T00:20:39;15.85;;;7.10;;
42104;SDS011;61464;51.472;5.712;2022-07-22T00:23:08;17.38;;;7.18;;
42104;SDS011;61464;51.472;5.712;2022-07-22T00:25:34;15.55;;;7.47;;
42104;SDS011;61464;51.472;5.712;2022-07-22T00:28:00;15.02;;;7.10;;
42104;SDS011;61464;51.472;5.712;2022-07-22T00:30:26;12.77;;;6.30;;
42104;SDS011;61464;51.472;5.712;2022-07-22T00:32:52;13.05;;;6.32;;
42104;SDS011;61464;51.472;5.712;2022-07-22T00:35:18;12.80;;;6.30;;
42104;SDS011;61464;51.472;5.712;2022-07-22T00:37:44;13.23;;;6.38;;
42104;SDS011;61464;51.472;5.712;2022-07-22T00:40:10;15.73;;;6.30;;
42104;SDS011;61464;51.472;5.712;2022-07-22T00:42:36;11.80;;;6.20;;
42104;SDS011;61464;51.472;5.712;2022-07-22T00:45:03;12.38;;;6.22;;
42104;SDS011;61464;51.472;5.712;2022-07-22T00:47:30;12.82;;;6.97;;
42104;SDS011;61464;51.472;5.712;2022-07-22T00:49:56;15.18;;;6.32;;
42104;SDS011;61464;51.472;5.712;2022-07-22T00:52:22;9.63;;;6.30;;
42104;SDS011;61464;51.472;5.712;2022-07-22T00:54:49;13.80;;;6.47;;
42104;SDS011;61464;51.472;5.712;2022-07-22T00:57:18;9.73;;;6.18;;
42104;SDS011;61464;51.472;5.712;2022-07-22T00:59:44;11.60;;;5.93;;
42104;SDS011;61464;51.472;5.712;2022-07-22T01:02:10;11.68;;;5.95;;
42104;SDS011;61464;51.472;5.712;2022-07-22T01:04:36;12.68;;;5.20;;
42104;SDS011;61464;51.472;5.712;2022-07-22T01:07:05;13.23;;;5.60;;
42104;SDS011;61464;51.472;5.712;2022-07-22T01:09:33;16.67;;;5.85;;
42104;SDS011;61464;51.472;5.712;2022-07-22T01:12:00;11.50;;;6.00;;
42104;SDS011;61464;51.472;5.712;2022-07-22T01:14:27;13.82;;;5.78;;
42104;SDS011;61464;51.472;5.712;2022-07-22T01:16:55;13.95;;;5.97;;
42104;SDS011;61464;51.472;5.712;2022-07-22T01:19:21;15.93;;;5.85;;
42104;SDS011;61464;51.472;5.712;2022-07-22T01:21:48;12.68;;;6.18;;
42104;SDS011;61464;51.472;5.712;2022-07-22T01:24:14;15.25;;;6.50;;
42104;SDS011;61464;51.472;5.712;2022-07-22T01:26:40;15.23;;;5.88;;
42104;SDS011;61464;51.472;5.712;2022-07-22T01:29:09;16.13;;;5.90;;
42104;SDS011;61464;51.472;5.712;2022-07-22T01:31:36;12.35;;;5.60;;
42104;SDS011;61464;51.472;5.712;2022-07-22T01:34:04;13.10;;;5.93;;
42104;SDS011;61464;51.472;5.712;2022-07-22T01:36:33;11.45;;;5.93;;
42104;SDS011;61464;51.472;5.712;2022-07-22T01:39:02;22.98;;;6.13;;
42104;SDS011;61464;51.472;5.712;2022-07-22T01:41:33;11.77;;;5.90;;
42104;SDS011;61464;51.472;5.712;2022-07-22T01:43:59;16.27;;;6.43;;
42104;SDS011;61464;51.472;5.712;2022-07-22T01:46:26;13.40;;;5.65;;
42104;SDS011;61464;51.472;5.712;2022-07-22T01:48:52;15.18;;;5.47;;
42104;SDS011;61464;51.472;5.712;2022-07-22T01:51:22;10.80;;;5.93;;
42104;SDS011;61464;51.472;5.712;2022-07-22T01:53:48;12.90;;;6.05;;
42104;SDS011;61464;51.472;5.712;2022-07-22T01:56:15;15.48;;;6.38;;
42104;SDS011;61464;51.472;5.712;2022-07-22T01:58:42;13.90;;;6.28;;
42104;SDS011;61464;51.472;5.712;2022-07-22T02:01:10;12.25;;;5.78;;
42104;SDS011;61464;51.472;5.712;2022-07-22T02:03:46;12.15;;;5.55;;
42104;SDS011;61464;51.472;5.712;2022-07-22T02:06:22;18.13;;;6.20;;
42104;SDS011;61464;51.472;5.712;2022-07-22T02:08:49;12.75;;;6.18;;
42104;SDS011;61464;51.472;5.712;2022-07-22T02:11:15;17.65;;;6.30;;
42104;SDS011;61464;51.472;5.712;2022-07-22T02:13:43;12.68;;;6.45;;
42104;SDS011;61464;51.472;5.712;2022-07-22T02:16:10;11.35;;;5.90;;
42104;SDS011;61464;51.472;5.712;2022-07-22T02:18:41;9.90;;;5.50;;
42104;SDS011;61464;51.472;5.712;2022-07-22T02:21:07;10.90;;;5.80;;
42104;SDS011;61464;51.472;5.712;2022-07-22T02:23:33;14.80;;;6.13;;
42104;SDS011;61464;51.472;5.712;2022-07-22T02:26:05;15.43;;;5.80;;
42104;SDS011;61464;51.472;5.712;2022-07-22T02:28:33;12.43;;;5.35;;
42104;SDS011;61464;51.472;5.712;2022-07-22T02:31:05;13.30;;;5.38;;
42104;SDS011;61464;51.472;5.712;2022-07-22T02:33:39;19.17;;;5.90;;
42104;SDS011;61464;51.472;5.712;2022-07-22T02:36:05;15.45;;;5.78;;
42104;SDS011;61464;51.472;5.712;2022-07-22T02:38:38;13.48;;;6.07;;
42104;SDS011;61464;51.472;5.712;2022-07-22T02:41:04;14.57;;;5.70;;
42104;SDS011;61464;51.472;5.712;2022-07-22T02:43:31;11.93;;;5.40;;
42104;SDS011;61464;51.472;5.712;2022-07-22T02:46:06;13.15;;;5.35;;
42104;SDS011;61464;51.472;5.712;2022-07-22T02:53:46;12.57;;;5.38;;
42104;SDS011;61464;51.472;5.712;2022-07-22T02:56:18;10.25;;;5.00;;
42104;SDS011;61464;51.472;5.712;2022-07-22T02:58:52;14.73;;;5.57;;
42104;SDS011;61464;51.472;5.712;2022-07-22T03:01:34;12.38;;;5.45;;
42104;SDS011;61464;51.472;5.712;2022-07-22T03:04:04;12.90;;;5.28;;
42104;SDS011;61464;51.472;5.712;2022-07-22T03:07:15;14.20;;;5.35;;
42104;SDS011;61464;51.472;5.712;2022-07-22T03:10:22;16.58;;;5.53;;
42104;SDS011;61464;51.472;5.712;2022-07-22T03:12:49;13.63;;;5.32;;
42104;SDS011;61464;51.472;5.712;2022-07-22T07:42:35;10.18;;;4.22;;
42104;SDS011;61464;51.472;5.712;2022-07-22T07:47:44;9.25;;;4.45;;
42104;SDS011;61464;51.472;5.712;2022-07-22T08:34:40;6.13;;;2.80;;
42104;SDS011;61464;51.472;5.712;2022-07-22T08:47:31;5.93;;;1.90;;
42104;SDS011;61464;51.472;5.712;2022-07-22T08:50:02;5.13;;;1.92;;
42104;SDS011;61464;51.472;5.712;2022-07-22T08:52:48;3.65;;;1.80;;
42104;SDS011;61464;51.472;5.712;2022-07-22T09:00:25;9.50;;;2.70;;
42104;SDS011;61464;51.472;5.712;2022-07-22T09:23:20;6.05;;;2.30;;
42104;SDS011;61464;51.472;5.712;2022-07-22T09:25:50;6.63;;;2.40;;
42104;SDS011;61464;51.472;5.712;2022-07-22T09:39:23;7.22;;;2.17;;
42104;SDS011;61464;51.472;5.712;2022-07-22T09:49:51;7.50;;;2.35;;
42104;SDS011;61464;51.472;5.712;2022-07-22T10:00:24;7.30;;;2.88;;
42104;SDS011;61464;51.472;5.712;2022-07-22T10:13:08;5.75;;;3.35;;
42104;SDS011;61464;51.472;5.712;2022-07-22T10:15:35;7.45;;;3.10;;
42104;SDS011;61464;51.472;5.712;2022-07-22T10:36:14;5.90;;;2.97;;
42104;SDS011;61464;51.472;5.712;2022-07-22T10:39:07;7.32;;;2.70;;
42104;SDS011;61464;51.472;5.712;2022-07-22T10:41:41;6.35;;;2.90;;
42104;SDS011;61464;51.472;5.712;2022-07-22T10:46:54;7.43;;;2.72;;
42104;SDS011;61464;51.472;5.712;2022-07-22T10:55:18;4.93;;;2.20;;
42104;SDS011;61464;51.472;5.712;2022-07-22T10:57:45;5.45;;;2.40;;
42104;SDS011;61464;51.472;5.712;2022-07-22T11:00:13;6.40;;;2.75;;
42104;SDS011;61464;51.472;5.712;2022-07-22T11:02:40;5.28;;;2.20;;
42104;SDS011;61464;51.472;5.712;2022-07-22T11:05:12;5.60;;;2.38;;
42104;SDS011;61464;51.472;5.712;2022-07-22T11:08:22;5.93;;;2.42;;
42104;SDS011;61464;51.472;5.712;2022-07-22T11:10:49;6.72;;;2.35;;
42104;SDS011;61464;51.472;5.712;2022-07-22T11:16:22;5.07;;;2.40;;
42104;SDS011;61464;51.472;5.712;2022-07-22T11:18:57;6.28;;;2.38;;
42104;SDS011;61464;51.472;5.712;2022-07-22T11:21:33;3.08;;;2.33;;
42104;SDS011;61464;51.472;5.712;2022-07-22T11:24:01;5.93;;;2.80;;
42104;SDS011;61464;51.472;5.712;2022-07-22T11:29:38;4.85;;;2.55;;
42104;SDS011;61464;51.472;5.712;2022-07-22T11:32:08;4.72;;;2.40;;
42104;SDS011;61464;51.472;5.712;2022-07-22T11:37:54;5.05;;;2.30;;
42104;SDS011;61464;51.472;5.712;2022-07-22T11:40:22;6.90;;;2.33;;
42104;SDS011;61464;51.472;5.712;2022-07-22T11:43:04;5.65;;;2.08;;
42104;SDS011;61464;51.472;5.712;2022-07-22T11:49:24;5.20;;;2.40;;
42104;SDS011;61464;51.472;5.712;2022-07-22T11:52:05;6.70;;;2.72;;
42104;SDS011;61464;51.472;5.712;2022-07-22T11:54:43;3.63;;;2.42;;
42104;SDS011;61464;51.472;5.712;2022-07-22T11:57:46;4.85;;;2.17;;
42104;SDS011;61464;51.472;5.712;2022-07-22T12:00:26;4.07;;;2.20;;
42104;SDS011;61464;51.472;5.712;2022-07-22T12:03:59;5.80;;;2.40;;
42104;SDS011;61464;51.472;5.712;2022-07-22T12:07:18;4.38;;;2.55;;
42104;SDS011;61464;51.472;5.712;2022-07-22T12:10:35;5.15;;;2.53;;
42104;SDS011;61464;51.472;5.712;2022-07-22T12:13:02;4.47;;;2.45;;
42104;SDS011;61464;51.472;5.712;2022-07-22T12:15:28;3.90;;;2.33;;
42104;SDS011;61464;51.472;5.712;2022-07-22T12:18:13;5.65;;;2.28;;
42104;SDS011;61464;51.472;5.712;2022-07-22T12:21:06;4.75;;;2.53;;
42104;SDS011;61464;51.472;5.712;2022-07-22T12:23:41;5.57;;;2.75;;
42104;SDS011;61464;51.472;5.712;2022-07-22T12:29:13;5.03;;;2.65;;
42104;SDS011;61464;51.472;5.712;2022-07-22T12:32:01;3.85;;;2.40;;
42104;SDS011;61464;51.472;5.712;2022-07-22T12:37:47;4.40;;;3.00;;
42104;SDS011;61464;51.472;5.712;2022-07-22T12:40:20;7.78;;;2.90;;
42104;SDS011;61464;51.472;5.712;2022-07-22T12:42:59;4.60;;;2.65;;
42104;SDS011;61464;51.472;5.712;2022-07-22T12:45:32;5.95;;;2.78;;
42104;SDS011;61464;51.472;5.712;2022-07-22T12:50:43;6.05;;;2.88;;
42104;SDS011;61464;51.472;5.712;2022-07-22T12:53:24;3.42;;;2.50;;
42104;SDS011;61464;51.472;5.712;2022-07-22T12:55:55;4.35;;;2.55;;
42104;SDS011;61464;51.472;5.712;2022-07-22T13:01:25;6.57;;;2.50;;
42104;SDS011;61464;51.472;5.712;2022-07-22T13:03:51;5.90;;;3.22;;
42104;SDS011;61464;51.472;5.712;2022-07-22T13:06:17;4.90;;;2.38;;
42104;SDS011;61464;51.472;5.712;2022-07-22T13:08:46;6.50;;;2.80;;
42104;SDS011;61464;51.472;5.712;2022-07-22T13:11:15;6.60;;;2.78;;
42104;SDS011;61464;51.472;5.712;2022-07-22T13:13:41;4.85;;;2.40;;
42104;SDS011;61464;51.472;5.712;2022-07-22T13:16:12;4.00;;;2.53;;
42104;SDS011;61464;51.472;5.712;2022-07-22T13:18:39;7.43;;;2.65;;
42104;SDS011;61464;51.472;5.712;2022-07-22T13:21:05;4.18;;;2.50;;
42104;SDS011;61464;51.472;5.712;2022-07-22T13:23:31;7.88;;;3.00;;
42104;SDS011;61464;51.472;5.712;2022-07-22T13:25:57;5.97;;;2.97;;
42104;SDS011;61464;51.472;5.712;2022-07-22T13:28:22;5.45;;;3.10;;
42104;SDS011;61464;51.472;5.712;2022-07-22T13:30:51;4.32;;;3.00;;
42104;SDS011;61464;51.472;5.712;2022-07-22T13:33:17;5.47;;;3.35;;
42104;SDS011;61464;51.472;5.712;2022-07-22T13:35:46;5.85;;;3.40;;
42104;SDS011;61464;51.472;5.712;2022-07-22T13:38:25;5.57;;;3.38;;
42104;SDS011;61464;51.472;5.712;2022-07-22T13:43:54;7.28;;;3.53;;
42104;SDS011;61464;51.472;5.712;2022-07-22T13:46:23;7.43;;;3.20;;
42104;SDS011;61464;51.472;5.712;2022-07-22T13:51:48;5.78;;;3.30;;
42104;SDS011;61464;51.472;5.712;2022-07-22T13:54:16;5.05;;;3.42;;
42104;SDS011;61464;51.472;5.712;2022-07-22T14:04:16;4.68;;;2.60;;
42104;SDS011;61464;51.472;5.712;2022-07-22T14:06:43;6.07;;;3.25;;
42104;SDS011;61464;51.472;5.712;2022-07-22T14:09:09;4.63;;;2.60;;
42104;SDS011;61464;51.472;5.712;2022-07-22T14:14:36;9.25;;;3.17;;
42104;SDS011;61464;51.472;5.712;2022-07-22T14:17:42;7.78;;;3.35;;
42104;SDS011;61464;51.472;5.712;2022-07-22T14:20:37;7.53;;;3.28;;
42104;SDS011;61464;51.472;5.712;2022-07-22T14:23:05;4.97;;;3.22;;
42104;SDS011;61464;51.472;5.712;2022-07-22T14:28:13;5.07;;;2.97;;
42104;SDS011;61464;51.472;5.712;2022-07-22T14:30:39;7.95;;;3.47;;
42104;SDS011;61464;51.472;5.712;2022-07-22T14:33:24;5.10;;;3.13;;
42104;SDS011;61464;51.472;5.712;2022-07-22T14:35:53;7.38;;;3.53;;
42104;SDS011;61464;51.472;5.712;2022-07-22T14:38:55;6.15;;;3.00;;
42104;SDS011;61464;51.472;5.712;2022-07-22T14:41:40;5.80;;;3.10;;
42104;SDS011;61464;51.472;5.712;2022-07-22T14:47:48;6.93;;;3.60;;
42104;SDS011;61464;51.472;5.712;2022-07-22T14:50:49;7.22;;;3.40;;
42104;SDS011;61464;51.472;5.712;2022-07-22T14:55:50;6.35;;;3.53;;
42104;SDS011;61464;51.472;5.712;2022-07-22T15:01:12;4.30;;;3.30;;
42104;SDS011;61464;51.472;5.712;2022-07-22T15:03:42;7.38;;;3.38;;
42104;SDS011;61464;51.472;5.712;2022-07-22T15:06:30;5.57;;;2.97;;
42104;SDS011;61464;51.472;5.712;2022-07-22T15:08:57;6.88;;;3.35;;
42104;SDS011;61464;51.472;5.712;2022-07-22T15:11:28;5.85;;;4.00;;
42104;SDS011;61464;51.472;5.712;2022-07-22T15:14:00;5.72;;;3.13;;
42104;SDS011;61464;51.472;5.712;2022-07-22T15:17:01;9.63;;;3.53;;
42104;SDS011;61464;51.472;5.712;2022-07-22T15:31:17;7.10;;;4.22;;
42104;SDS011;61464;51.472;5.712;2022-07-22T15:42:12;7.80;;;3.95;;
42104;SDS011;61464;51.472;5.712;2022-07-22T15:53:16;7.45;;;4.13;;
42104;SDS011;61464;51.472;5.712;2022-07-22T15:55:49;5.55;;;3.00;;
42104;SDS011;61464;51.472;5.712;2022-07-22T15:58:47;6.30;;;3.35;;
42104;SDS011;61464;51.472;5.712;2022-07-22T16:01:38;7.88;;;3.58;;
42104;SDS011;61464;51.472;5.712;2022-07-22T16:04:04;7.40;;;3.95;;
42104;SDS011;61464;51.472;5.712;2022-07-22T16:06:33;8.20;;;4.15;;
42104;SDS011;61464;51.472;5.712;2022-07-22T16:09:01;9.45;;;4.32;;
42104;SDS011;61464;51.472;5.712;2022-07-22T16:11:28;4.93;;;3.42;;
42104;SDS011;61464;51.472;5.712;2022-07-22T16:13:54;9.15;;;4.28;;
42104;SDS011;61464;51.472;5.712;2022-07-22T16:16:20;7.28;;;4.45;;
42104;SDS011;61464;51.472;5.712;2022-07-22T16:18:49;4.68;;;3.92;;
42104;SDS011;61464;51.472;5.712;2022-07-22T16:21:28;6.40;;;3.65;;
42104;SDS011;61464;51.472;5.712;2022-07-22T16:24:23;8.75;;;3.97;;
42104;SDS011;61464;51.472;5.712;2022-07-22T16:27:11;9.80;;;4.53;;
42104;SDS011;61464;51.472;5.712;2022-07-22T16:30:02;6.22;;;3.90;;
42104;SDS011;61464;51.472;5.712;2022-07-22T16:32:55;6.35;;;3.85;;
42104;SDS011;61464;51.472;5.712;2022-07-22T16:35:30;7.32;;;4.35;;
42104;SDS011;61464;51.472;5.712;2022-07-22T16:38:10;5.30;;;3.38;;
42104;SDS011;61464;51.472;5.712;2022-07-22T16:40:36;7.00;;;4.55;;
42104;SDS011;61464;51.472;5.712;2022-07-22T16:43:12;6.72;;;4.13;;
42104;SDS011;61464;51.472;5.712;2022-07-22T16:45:47;7.03;;;4.10;;
42104;SDS011;61464;51.472;5.712;2022-07-22T16:48:25;11.18;;;4.53;;
42104;SDS011;61464;51.472;5.712;2022-07-22T16:50:52;9.13;;;4.72;;
42104;SDS011;61464;51.472;5.712;2022-07-22T16:53:19;7.28;;;4.72;;
42104;SDS011;61464;51.472;5.712;2022-07-22T16:55:50;6.90;;;3.97;;
42104;SDS011;61464;51.472;5.712;2022-07-22T16:58:16;8.85;;;5.00;;
42104;SDS011;61464;51.472;5.712;2022-07-22T17:03:18;11.27;;;4.65;;
42104;SDS011;61464;51.472;5.712;2022-07-22T17:05:44;7.38;;;4.60;;
42104;SDS011;61464;51.472;5.712;2022-07-22T17:08:31;8.00;;;4.38;;
42104;SDS011;61464;51.472;5.712;2022-07-22T17:11:07;7.50;;;4.50;;
42104;SDS011;61464;51.472;5.712;2022-07-22T17:13:39;9.20;;;4.50;;
42104;SDS011;61464;51.472;5.712;2022-07-22T17:16:19;8.73;;;4.57;;
42104;SDS011;61464;51.472;5.712;2022-07-22T17:18:59;9.27;;;4.22;;
42104;SDS011;61464;51.472;5.712;2022-07-22T17:21:51;8.90;;;4.30;;
42104;SDS011;61464;51.472;5.712;2022-07-22T17:24:17;9.68;;;3.70;;
42104;SDS011;61464;51.472;5.712;2022-07-22T17:26:43;9.50;;;4.20;;
42104;SDS011;61464;51.472;5.712;2022-07-22T17:29:33;7.45;;;3.83;;
42104;SDS011;61464;51.472;5.712;2022-07-22T17:32:02;8.45;;;4.50;;
42104;SDS011;61464;51.472;5.712;2022-07-22T17:34:31;11.90;;;4.50;;
42104;SDS011;61464;51.472;5.712;2022-07-22T17:42:23;6.72;;;3.70;;
42104;SDS011;61464;51.472;5.712;2022-07-22T17:45:25;6.38;;;3.22;;
42104;SDS011;61464;51.472;5.712;2022-07-22T17:48:01;5.85;;;3.95;;
42104;SDS011;61464;51.472;5.712;2022-07-22T17:51:05;7.07;;;4.13;;
42104;SDS011;61464;51.472;5.712;2022-07-22T17:53:37;5.90;;;3.78;;
42104;SDS011;61464;51.472;5.712;2022-07-22T17:56:12;6.30;;;3.78;;
42104;SDS011;61464;51.472;5.712;2022-07-22T17:58:39;6.75;;;3.90;;
42104;SDS011;61464;51.472;5.712;2022-07-22T18:03:47;6.63;;;3.22;;
42104;SDS011;61464;51.472;5.712;2022-07-22T18:06:13;7.85;;;4.63;;
42104;SDS011;61464;51.472;5.712;2022-07-22T18:08:39;6.75;;;3.30;;
42104;SDS011;61464;51.472;5.712;2022-07-22T18:14:47;5.78;;;3.65;;
42104;SDS011;61464;51.472;5.712;2022-07-22T18:17:15;12.30;;;4.13;;
42104;SDS011;61464;51.472;5.712;2022-07-22T18:19:41;6.68;;;3.55;;
42104;SDS011;61464;51.472;5.712;2022-07-22T18:22:12;8.05;;;3.40;;
42104;SDS011;61464;51.472;5.712;2022-07-22T18:24:43;7.25;;;3.60;;
42104;SDS011;61464;51.472;5.712;2022-07-22T18:30:48;8.60;;;4.18;;
42104;SDS011;61464;51.472;5.712;2022-07-22T18:33:14;6.30;;;3.10;;
42104;SDS011;61464;51.472;5.712;2022-07-22T18:35:46;6.45;;;3.60;;
42104;SDS011;61464;51.472;5.712;2022-07-22T18:38:45;6.93;;;3.95;;
42104;SDS011;61464;51.472;5.712;2022-07-22T18:41:26;5.38;;;3.03;;
42104;SDS011;61464;51.472;5.712;2022-07-22T18:43:58;9.00;;;3.30;;
42104;SDS011;61464;51.472;5.712;2022-07-22T18:46:48;7.13;;;3.15;;
42104;SDS011;61464;51.472;5.712;2022-07-22T18:49:39;5.95;;;4.10;;
42104;SDS011;61464;51.472;5.712;2022-07-22T18:52:09;7.93;;;3.72;;
42104;SDS011;61464;51.472;5.712;2022-07-22T18:54:47;9.88;;;4.88;;
42104;SDS011;61464;51.472;5.712;2022-07-22T18:57:20;8.85;;;5.80;;
42104;SDS011;61464;51.472;5.712;2022-07-22T18:59:59;10.57;;;5.47;;
42104;SDS011;61464;51.472;5.712;2022-07-22T19:02:27;9.32;;;4.70;;
42104;SDS011;61464;51.472;5.712;2022-07-22T19:05:02;8.55;;;4.38;;
42104;SDS011;61464;51.472;5.712;2022-07-22T19:07:38;11.52;;;4.68;;
42104;SDS011;61464;51.472;5.712;2022-07-22T19:10:15;10.05;;;5.55;;
42104;SDS011;61464;51.472;5.712;2022-07-22T19:12:41;6.60;;;4.05;;
42104;SDS011;61464;51.472;5.712;2022-07-22T19:15:07;8.80;;;4.45;;
42104;SDS011;61464;51.472;5.712;2022-07-22T19:17:34;11.10;;;3.97;;
42104;SDS011;61464;51.472;5.712;2022-07-22T19:20:00;7.75;;;3.78;;
42104;SDS011;61464;51.472;5.712;2022-07-22T19:22:30;6.78;;;4.05;;
42104;SDS011;61464;51.472;5.712;2022-07-22T19:24:59;9.52;;;4.30;;
42104;SDS011;61464;51.472;5.712;2022-07-22T19:27:26;5.95;;;4.10;;
42104;SDS011;61464;51.472;5.712;2022-07-22T19:30:03;6.93;;;3.88;;
42104;SDS011;61464;51.472;5.712;2022-07-22T19:32:30;8.45;;;3.90;;
42104;SDS011;61464;51.472;5.712;2022-07-22T19:34:57;6.72;;;4.28;;
42104;SDS011;61464;51.472;5.712;2022-07-22T19:37:23;7.85;;;4.03;;
42104;SDS011;61464;51.472;5.712;2022-07-22T19:39:49;7.22;;;4.07;;
42104;SDS011;61464;51.472;5.712;2022-07-22T19:42:20;8.13;;;4.00;;
42104;SDS011;61464;51.472;5.712;2022-07-22T19:44:49;8.43;;;3.83;;
42104;SDS011;61464;51.472;5.712;2022-07-22T19:47:16;7.82;;;4.10;;
42104;SDS011;61464;51.472;5.712;2022-07-22T19:49:49;9.57;;;4.10;;
42104;SDS011;61464;51.472;5.712;2022-07-22T19:52:15;10.23;;;4.05;;
42104;SDS011;61464;51.472;5.712;2022-07-22T19:54:45;9.10;;;3.92;;
42104;SDS011;61464;51.472;5.712;2022-07-22T19:57:13;10.20;;;4.18;;
42104;SDS011;61464;51.472;5.712;2022-07-22T20:00:03;9.52;;;4.13;;
42104;SDS011;61464;51.472;5.712;2022-07-22T20:02:34;8.27;;;4.25;;
42104;SDS011;61464;51.472;5.712;2022-07-22T20:05:04;8.65;;;4.75;;
42104;SDS011;61464;51.472;5.712;2022-07-22T20:07:34;10.32;;;4.25;;
42104;SDS011;61464;51.472;5.712;2022-07-22T20:10:00;9.70;;;4.43;;
42104;SDS011;61464;51.472;5.712;2022-07-22T20:12:29;5.40;;;3.80;;
42104;SDS011;61464;51.472;5.712;2022-07-22T20:14:55;9.88;;;4.13;;
42104;SDS011;61464;51.472;5.712;2022-07-22T20:17:29;10.98;;;4.43;;
42104;SDS011;61464;51.472;5.712;2022-07-22T20:20:00;8.93;;;4.05;;
42104;SDS011;61464;51.472;5.712;2022-07-22T20:22:45;8.50;;;4.47;;
42104;SDS011;61464;51.472;5.712;2022-07-22T20:25:16;7.80;;;4.40;;
42104;SDS011;61464;51.472;5.712;2022-07-22T20:27:42;8.85;;;4.55;;
42104;SDS011;61464;51.472;5.712;2022-07-22T20:30:11;7.05;;;4.80;;
42104;SDS011;61464;51.472;5.712;2022-07-22T20:32:40;7.72;;;4.57;;
42104;SDS011;61464;51.472;5.712;2022-07-22T20:35:09;6.05;;;4.05;;
42104;SDS011;61464;51.472;5.712;2022-07-22T20:37:37;11.73;;;4.72;;
42104;SDS011;61464;51.472;5.712;2022-07-22T20:40:10;8.00;;;4.53;;
42104;SDS011;61464;51.472;5.712;2022-07-22T20:42:37;12.38;;;5.10;;
42104;SDS011;61464;51.472;5.712;2022-07-22T20:45:05;9.98;;;4.72;;
42104;SDS011;61464;51.472;5.712;2022-07-22T20:47:35;9.00;;;4.82;;
42104;SDS011;61464;51.472;5.712;2022-07-22T20:50:02;10.75;;;4.85;;
42104;SDS011;61464;51.472;5.712;2022-07-22T20:52:42;8.02;;;4.57;;
42104;SDS011;61464;51.472;5.712;2022-07-22T20:55:14;12.73;;;5.60;;
42104;SDS011;61464;51.472;5.712;2022-07-22T20:57:42;8.15;;;4.75;;
42104;SDS011;61464;51.472;5.712;2022-07-22T21:00:13;8.27;;;5.43;;
42104;SDS011;61464;51.472;5.712;2022-07-22T21:03:01;10.57;;;4.85;;
42104;SDS011;61464;51.472;5.712;2022-07-22T21:05:35;7.80;;;5.55;;
42104;SDS011;61464;51.472;5.712;2022-07-22T21:08:37;10.88;;;6.03;;
42104;SDS011;61464;51.472;5.712;2022-07-22T21:11:15;12.18;;;7.10;;
42104;SDS011;61464;51.472;5.712;2022-07-22T21:13:56;10.18;;;5.97;;
42104;SDS011;61464;51.472;5.712;2022-07-22T21:16:28;13.27;;;5.50;;
42104;SDS011;61464;51.472;5.712;2022-07-22T21:19:01;6.93;;;5.00;;
42104;SDS011;61464;51.472;5.712;2022-07-22T21:24:10;9.90;;;5.60;;
42104;SDS011;61464;51.472;5.712;2022-07-22T21:26:41;9.52;;;5.18;;
42104;SDS011;61464;51.472;5.712;2022-07-22T21:29:29;6.95;;;5.30;;
42104;SDS011;61464;51.472;5.712;2022-07-22T21:32:05;10.52;;;6.07;;
42104;SDS011;61464;51.472;5.712;2022-07-22T21:37:34;10.52;;;6.18;;
42104;SDS011;61464;51.472;5.712;2022-07-22T21:40:02;9.35;;;6.00;;
42104;SDS011;61464;51.472;5.712;2022-07-22T21:42:34;13.02;;;6.60;;
42104;SDS011;61464;51.472;5.712;2022-07-22T21:45:00;10.02;;;6.53;;
42104;SDS011;61464;51.472;5.712;2022-07-22T21:47:36;12.20;;;6.05;;
42104;SDS011;61464;51.472;5.712;2022-07-22T21:51:02;8.38;;;5.60;;
42104;SDS011;61464;51.472;5.712;2022-07-22T21:53:50;10.25;;;6.15;;
42104;SDS011;61464;51.472;5.712;2022-07-22T21:56:17;12.20;;;6.30;;
42104;SDS011;61464;51.472;5.712;2022-07-22T21:59:06;11.43;;;5.72;;
42104;SDS011;61464;51.472;5.712;2022-07-22T22:01:46;10.35;;;5.60;;
42104;SDS011;61464;51.472;5.712;2022-07-22T22:04:15;8.35;;;6.30;;
42104;SDS011;61464;51.472;5.712;2022-07-22T22:06:53;9.52;;;5.63;;
42104;SDS011;61464;51.472;5.712;2022-07-22T22:10:20;10.65;;;5.43;;
42104;SDS011;61464;51.472;5.712;2022-07-22T22:12:49;10.63;;;5.15;;
42104;SDS011;61464;51.472;5.712;2022-07-22T22:15:22;10.90;;;5.25;;
42104;SDS011;61464;51.472;5.712;2022-07-22T22:17:58;11.70;;;5.05;;
42104;SDS011;61464;51.472;5.712;2022-07-22T22:20:26;7.68;;;5.03;;
42104;SDS011;61464;51.472;5.712;2022-07-22T22:22:59;7.70;;;5.50;;
42104;SDS011;61464;51.472;5.712;2022-07-22T22:25:25;6.53;;;5.30;;
42104;SDS011;61464;51.472;5.712;2022-07-22T22:27:54;14.27;;;5.10;;
42104;SDS011;61464;51.472;5.712;2022-07-22T22:30:40;10.25;;;5.53;;
42104;SDS011;61464;51.472;5.712;2022-07-22T22:33:11;8.25;;;5.10;;
42104;SDS011;61464;51.472;5.712;2022-07-22T22:35:45;10.82;;;5.07;;
42104;SDS011;61464;51.472;5.712;2022-07-22T22:38:16;7.35;;;5.15;;
42104;SDS011;61464;51.472;5.712;2022-07-22T22:41:10;9.73;;;5.40;;
42104;SDS011;61464;51.472;5.712;2022-07-22T22:43:49;10.82;;;5.18;;
42104;SDS011;61464;51.472;5.712;2022-07-22T22:51:44;7.68;;;4.63;;
42104;SDS011;61464;51.472;5.712;2022-07-22T22:54:13;8.25;;;4.78;;
42104;SDS011;61464;51.472;5.712;2022-07-22T22:56:52;9.00;;;4.93;;
42104;SDS011;61464;51.472;5.712;2022-07-22T23:14:59;6.20;;;4.32;;
42104;SDS011;61464;51.472;5.712;2022-07-22T23:32:31;7.65;;;4.80;;
42104;SDS011;61464;51.472;5.712;2022-07-22T23:34:57;11.10;;;5.03;;
42104;SDS011;61464;51.472;5.712;2022-07-22T23:37:23;9.93;;;5.07;;
42104;SDS011;61464;51.472;5.712;2022-07-22T23:39:50;7.72;;;5.05;;
42104;SDS011;61464;51.472;5.712;2022-07-22T23:42:18;7.53;;;4.95;;
42104;SDS011;61464;51.472;5.712;2022-07-22T23:44:56;6.82;;;5.18;;
42104;SDS011;61464;51.472;5.712;2022-07-22T23:47:56;7.47;;;5.15;;
42104;SDS011;61464;51.472;5.712;2022-07-22T23:50:24;10.82;;;6.18;;
42104;SDS011;61464;51.472;5.712;2022-07-22T23:53:01;9.07;;;5.78;;
42104;SDS011;61464;51.472;5.712;2022-07-22T23:55:32;8.27;;;5.53;;
42104;SDS011;61464;51.472;5.712;2022-07-22T23:58:05;10.07;;;5.90;;
